Time,TemperatureF,DewpointF,PressureIn,WindDirection,WindDirectionDegrees,WindSpeedMPH,WindSpeedGustMPH,Humidity,HourlyPrecipIn,Conditions,Clouds,dailyrainin,SoftwareType,DateUTC
2013-06-30 00:08:00,78.0,44.9,29.88,SE,139,5.0,7.0,31,0.00,,,0.00,Wunderground v.1.15,2013-06-30 06:08:00,
2013-06-30 00:13:00,78.0,44.9,29.88,ESE,123,5.0,7.0,31,0.00,,,0.00,Wunderground v.1.15,2013-06-30 06:13:00,
2013-06-30 00:18:00,78.1,45.0,29.88,ESE,118,5.0,5.0,31,0.00,,,0.00,Wunderground v.1.15,2013-06-30 06:18:00,
2013-06-30 00:28:00,77.9,44.8,29.88,East,97,3.0,3.0,31,0.00,,,0.00,Wunderground v.1.15,2013-06-30 06:28:00,
2013-06-30 00:33:00,77.5,44.5,29.88,East,94,1.0,3.0,31,0.00,,,0.00,Wunderground v.1.15,2013-06-30 06:33:00,
2013-06-30 00:38:00,77.0,44.9,29.88,East,94,0.0,0.0,32,0.00,,,0.00,Wunderground v.1.15,2013-06-30 06:38:00,
2013-06-30 00:48:00,75.9,45.5,29.88,ESE,104,0.0,0.0,34,0.00,,,0.00,Wunderground v.1.15,2013-06-30 06:48:00,
2013-06-30 00:58:00,74.7,46.0,29.89,ESE,105,0.0,0.0,36,0.00,,,0.00,Wunderground v.1.15,2013-06-30 06:58:00,
2013-06-30 01:08:00,74.0,46.1,29.89,East,94,0.0,0.0,37,0.00,,,0.00,Wunderground v.1.15,2013-06-30 07:08:00,
2013-06-30 01:13:00,74.0,46.1,29.88,East,93,0.0,0.0,37,0.00,,,0.00,Wunderground v.1.15,2013-06-30 07:13:00,
2013-06-30 01:23:00,74.0,46.1,29.89,East,88,0.0,0.0,37,0.00,,,0.00,Wunderground v.1.15,2013-06-30 07:23:00,
2013-06-30 01:33:00,74.7,46.7,29.89,NNW,328,1.0,2.0,37,0.00,,,0.00,Wunderground v.1.15,2013-06-30 07:33:00,
2013-06-30 01:43:00,74.9,46.1,29.88,NNE,19,0.0,1.0,36,0.00,,,0.00,Wunderground v.1.15,2013-06-30 07:43:00,
2013-06-30 01:53:00,74.4,46.4,29.88,NNE,13,0.0,0.0,37,0.00,,,0.00,Wunderground v.1.15,2013-06-30 07:53:00,
2013-06-30 01:58:00,74.4,46.4,29.88,NNW,347,0.0,1.0,37,0.00,,,0.00,Wunderground v.1.15,2013-06-30 07:58:00,
2013-06-30 02:08:00,74.4,46.4,29.88,North,351,2.0,2.0,37,0.00,,,0.00,Wunderground v.1.15,2013-06-30 08:08:00,
2013-06-30 02:18:00,74.0,46.8,29.87,NE,49,1.0,1.0,38,0.00,,,0.00,Wunderground v.1.15,2013-06-30 08:18:00,
2013-06-30 02:28:00,74.0,46.1,29.87,North,356,1.0,1.0,37,0.00,,,0.00,Wunderground v.1.15,2013-06-30 08:28:00,
2013-06-30 02:33:00,74.0,46.1,29.87,NNE,31,1.0,1.0,37,0.00,,,0.00,Wunderground v.1.15,2013-06-30 08:33:00,
2013-06-30 02:43:00,73.6,46.4,29.87,NNE,30,0.0,1.0,38,0.00,,,0.00,Wunderground v.1.15,2013-06-30 08:43:00,
2013-06-30 02:48:00,73.4,46.2,29.86,NNE,27,0.0,0.0,38,0.00,,,0.00,Wunderground v.1.15,2013-06-30 08:48:00,
2013-06-30 02:58:00,72.9,46.5,29.87,SE,145,1.0,1.0,39,0.00,,,0.00,Wunderground v.1.15,2013-06-30 08:58:00,
2013-06-30 03:08:00,74.2,45.5,29.87,SSE,162,3.0,3.0,36,0.00,,,0.00,Wunderground v.1.15,2013-06-30 09:08:00,
2013-06-30 03:13:00,74.5,45.8,29.87,SSE,162,1.0,3.0,36,0.00,,,0.00,Wunderground v.1.15,2013-06-30 09:13:00,
2013-06-30 03:23:00,73.3,45.4,29.87,SSE,162,0.0,0.0,37,0.00,,,0.00,Wunderground v.1.15,2013-06-30 09:23:00,
2013-06-30 03:33:00,72.9,45.8,29.87,NW,307,0.0,1.0,38,0.00,,,0.00,Wunderground v.1.15,2013-06-30 09:33:00,
2013-06-30 03:43:00,72.6,46.2,29.86,NNW,333,0.0,1.0,39,0.00,,,0.00,Wunderground v.1.15,2013-06-30 09:43:00,
2013-06-30 03:48:00,72.4,46.0,29.86,North,359,1.0,3.0,39,0.00,,,0.00,Wunderground v.1.15,2013-06-30 09:48:00,
2013-06-30 03:58:00,72.3,45.9,29.86,West,265,1.0,1.0,39,0.00,,,0.00,Wunderground v.1.15,2013-06-30 09:58:00,
2013-06-30 04:08:00,71.8,46.2,29.87,NNW,347,1.0,3.0,40,0.00,,,0.00,Wunderground v.1.15,2013-06-30 10:08:00,
2013-06-30 04:18:00,71.4,45.8,29.87,North,355,1.0,1.0,40,0.00,,,0.00,Wunderground v.1.15,2013-06-30 10:18:00,
2013-06-30 04:23:00,71.0,46.1,29.87,North,356,0.0,1.0,41,0.00,,,0.00,Wunderground v.1.15,2013-06-30 10:23:00,
2013-06-30 04:28:00,70.7,46.5,29.87,NNW,337,0.0,1.0,42,0.00,,,0.00,Wunderground v.1.15,2013-06-30 10:28:00,
2013-06-30 04:33:00,70.4,46.2,29.87,NNE,15,0.0,1.0,42,0.00,,,0.00,Wunderground v.1.15,2013-06-30 10:33:00,
2013-06-30 04:43:00,69.7,45.6,29.87,NNE,15,0.0,0.0,42,0.00,,,0.00,Wunderground v.1.15,2013-06-30 10:43:00,
2013-06-30 04:53:00,68.9,45.5,29.87,ESE,123,0.0,1.0,43,0.00,,,0.00,Wunderground v.1.15,2013-06-30 10:53:00,
2013-06-30 04:58:00,68.8,46.0,29.87,SE,125,1.0,1.0,44,0.00,,,0.00,Wunderground v.1.15,2013-06-30 10:58:00,
2013-06-30 05:08:00,68.0,45.9,29.88,SE,125,0.0,0.0,45,0.00,,,0.00,Wunderground v.1.15,2013-06-30 11:08:00,
2013-06-30 05:13:00,67.7,45.6,29.88,SE,125,0.0,0.0,45,0.00,,,0.00,Wunderground v.1.15,2013-06-30 11:13:00,
2013-06-30 05:18:00,67.3,45.8,29.88,SE,125,0.0,0.0,46,0.00,,,0.00,Wunderground v.1.15,2013-06-30 11:18:00,
2013-06-30 05:28:00,67.0,46.7,29.88,SE,125,0.0,0.0,48,0.00,,,0.00,Wunderground v.1.15,2013-06-30 11:28:00,
2013-06-30 05:38:00,66.4,46.7,29.89,SE,125,0.0,0.0,49,0.00,,,0.00,Wunderground v.1.15,2013-06-30 11:38:00,
2013-06-30 05:48:00,66.3,46.6,29.89,SE,125,0.0,0.0,49,0.00,,,0.00,Wunderground v.1.15,2013-06-30 11:48:00,
2013-06-30 05:53:00,66.1,46.9,29.89,SE,125,0.0,0.0,50,0.00,,,0.00,Wunderground v.1.15,2013-06-30 11:53:00,
2013-06-30 05:58:00,65.7,46.5,29.89,SE,125,0.0,0.0,50,0.00,,,0.00,Wunderground v.1.15,2013-06-30 11:58:00,
2013-06-30 06:08:00,65.2,47.6,29.89,SE,125,0.0,0.0,53,0.00,,,0.00,Wunderground v.1.15,2013-06-30 12:08:00,
2013-06-30 06:18:00,65.3,46.7,29.89,SE,126,0.0,0.0,51,0.00,,,0.00,Wunderground v.1.15,2013-06-30 12:18:00,
2013-06-30 06:28:00,65.6,47.0,29.89,SE,125,0.0,0.0,51,0.00,,,0.00,Wunderground v.1.15,2013-06-30 12:28:00,
2013-06-30 06:38:00,65.8,47.7,29.89,SE,131,0.0,0.0,52,0.00,,,0.00,Wunderground v.1.15,2013-06-30 12:38:00,
2013-06-30 06:43:00,66.0,47.9,29.89,SE,131,0.0,0.0,52,0.00,,,0.00,Wunderground v.1.15,2013-06-30 12:43:00,
2013-06-30 06:48:00,66.4,48.7,29.89,SSW,197,0.0,0.0,53,0.00,,,0.00,Wunderground v.1.15,2013-06-30 12:48:00,
2013-06-30 06:58:00,67.4,48.6,29.90,SSW,197,0.0,0.0,51,0.00,,,0.00,Wunderground v.1.15,2013-06-30 12:58:00,
2013-06-30 07:08:00,68.8,48.9,29.89,SSW,198,0.0,0.0,49,0.00,,,0.00,Wunderground v.1.15,2013-06-30 13:08:00,
2013-06-30 07:18:00,69.7,49.1,29.90,SW,215,0.0,0.0,48,0.00,,,0.00,Wunderground v.1.15,2013-06-30 13:18:00,
2013-06-30 07:23:00,70.2,47.3,29.89,NNE,12,0.0,1.0,44,0.00,,,0.00,Wunderground v.1.15,2013-06-30 13:23:00,
2013-06-30 07:28:00,70.7,47.7,29.89,NNW,327,1.0,1.0,44,0.00,,,0.00,Wunderground v.1.15,2013-06-30 13:28:00,
2013-06-30 07:38:00,71.5,47.2,29.90,NW,323,1.0,2.0,42,0.00,,,0.00,Wunderground v.1.15,2013-06-30 13:38:00,
2013-06-30 07:48:00,71.6,47.9,29.90,West,270,1.0,1.0,43,0.00,,,0.00,Wunderground v.1.15,2013-06-30 13:48:00,
2013-06-30 07:58:00,72.2,48.5,29.90,NW,326,1.0,1.0,43,0.00,,,0.00,Wunderground v.1.15,2013-06-30 13:58:00,
2013-06-30 08:08:00,72.6,47.5,29.90,West,278,1.0,1.0,41,0.00,,,0.00,Wunderground v.1.15,2013-06-30 14:08:00,
2013-06-30 08:18:00,73.1,46.7,29.90,North,6,2.0,2.0,39,0.00,,,0.00,Wunderground v.1.15,2013-06-30 14:18:00,
2013-06-30 08:23:00,73.3,47.5,29.91,NNW,340,2.0,2.0,40,0.00,,,0.00,Wunderground v.1.15,2013-06-30 14:23:00,
2013-06-30 08:28:00,73.4,47.6,29.91,North,354,2.0,2.0,40,0.00,,,0.00,Wunderground v.1.15,2013-06-30 14:28:00,
2013-06-30 08:33:00,73.6,47.8,29.91,NW,314,2.0,2.0,40,0.00,,,0.00,Wunderground v.1.15,2013-06-30 14:33:00,
2013-06-30 08:43:00,73.7,47.9,29.91,NNW,346,3.0,5.0,40,0.00,,,0.00,Wunderground v.1.15,2013-06-30 14:43:00,
2013-06-30 08:53:00,73.8,47.3,29.91,North,359,4.0,4.0,39,0.00,,,0.00,Wunderground v.1.15,2013-06-30 14:53:00,
2013-06-30 08:58:00,74.4,47.1,29.91,NNE,18,2.0,3.0,38,0.00,,,0.00,Wunderground v.1.15,2013-06-30 14:58:00,
2013-06-30 09:08:00,74.7,46.7,29.90,NNW,343,3.0,3.0,37,0.00,,,0.00,Wunderground v.1.15,2013-06-30 15:08:00,
2013-06-30 09:18:00,75.6,47.5,29.90,NNW,344,1.0,2.0,37,0.00,,,0.00,Wunderground v.1.15,2013-06-30 15:18:00,
2013-06-30 09:23:00,75.7,47.6,29.90,NW,322,2.0,3.0,37,0.00,,,0.00,Wunderground v.1.15,2013-06-30 15:23:00,
2013-06-30 09:33:00,77.0,48.7,29.89,North,1,3.0,4.0,37,0.00,,,0.00,Wunderground v.1.15,2013-06-30 15:33:00,
2013-06-30 09:38:00,77.7,47.9,29.89,NW,307,3.0,3.0,35,0.00,,,0.00,Wunderground v.1.15,2013-06-30 15:38:00,
2013-06-30 09:48:00,78.1,47.4,29.89,NNW,338,4.0,4.0,34,0.00,,,0.00,Wunderground v.1.15,2013-06-30 15:48:00,
2013-06-30 09:53:00,78.3,47.6,29.89,North,1,5.0,5.0,34,0.00,,,0.00,Wunderground v.1.15,2013-06-30 15:53:00,
2013-06-30 09:58:00,78.7,47.2,29.89,NW,322,4.0,5.0,33,0.00,,,0.00,Wunderground v.1.15,2013-06-30 15:58:00,
2013-06-30 10:08:00,79.6,47.1,29.89,WSW,246,4.0,4.0,32,0.00,,,0.00,Wunderground v.1.15,2013-06-30 16:08:00,
2013-06-30 10:13:00,79.9,47.4,29.89,NNW,348,4.0,4.0,32,0.00,,,0.00,Wunderground v.1.15,2013-06-30 16:13:00,
2013-06-30 10:18:00,80.4,47.8,29.88,WNW,291,3.0,3.0,32,0.00,,,0.00,Wunderground v.1.15,2013-06-30 16:18:00,
2013-06-30 10:23:00,80.7,48.1,29.88,NNW,335,3.0,3.0,32,0.00,,,0.00,Wunderground v.1.15,2013-06-30 16:23:00,
2013-06-30 10:33:00,81.2,47.7,29.88,NNW,343,3.0,3.0,31,0.00,,,0.00,Wunderground v.1.15,2013-06-30 16:33:00,
2013-06-30 10:43:00,82.4,47.8,29.88,NNW,338,2.0,5.0,30,0.00,,,0.00,Wunderground v.1.15,2013-06-30 16:43:00,
2013-06-30 10:53:00,82.2,47.7,29.88,NNW,335,3.0,5.0,30,0.00,,,0.00,Wunderground v.1.15,2013-06-30 16:53:00,
2013-06-30 10:58:00,82.7,46.3,29.88,NNW,331,2.0,2.0,28,0.00,,,0.00,Wunderground v.1.15,2013-06-30 16:58:00,
2013-06-30 11:08:00,83.9,46.3,29.87,NW,307,1.0,2.0,27,0.00,,,0.00,Wunderground v.1.15,2013-06-30 17:08:00,
2013-06-30 11:13:00,84.0,48.3,29.87,WSW,255,2.0,5.0,29,0.00,,,0.00,Wunderground v.1.15,2013-06-30 17:13:00,
2013-06-30 11:23:00,85.4,46.6,29.86,SSW,209,2.0,2.0,26,0.00,,,0.00,Wunderground v.1.15,2013-06-30 17:23:00,
2013-06-30 11:33:00,86.6,48.6,29.86,SSE,153,1.0,2.0,27,0.00,,,0.00,Wunderground v.1.15,2013-06-30 17:33:00,
2013-06-30 11:43:00,86.8,47.8,29.85,West,262,2.0,3.0,26,0.00,,,0.00,Wunderground v.1.15,2013-06-30 17:43:00,
2013-06-30 11:53:00,86.5,47.5,29.85,NNW,341,2.0,5.0,26,0.00,,,0.00,Wunderground v.1.15,2013-06-30 17:53:00,
2013-06-30 11:58:00,86.8,46.8,29.85,NW,310,3.0,6.0,25,0.00,,,0.00,Wunderground v.1.15,2013-06-30 17:58:00,
2013-06-30 12:08:00,86.8,46.8,29.84,ESE,103,3.0,3.0,25,0.00,,,0.00,Wunderground v.1.15,2013-06-30 18:08:00,
2013-06-30 12:18:00,88.1,45.6,29.84,NW,326,2.0,2.0,23,0.00,,,0.00,Wunderground v.1.15,2013-06-30 18:18:00,
2013-06-30 12:23:00,88.1,45.6,29.83,SSE,151,2.0,2.0,23,0.00,,,0.00,Wunderground v.1.15,2013-06-30 18:23:00,
2013-06-30 12:33:00,89.7,45.8,29.83,SSW,205,2.0,3.0,22,0.00,,,0.00,Wunderground v.1.15,2013-06-30 18:33:00,
2013-06-30 12:43:00,90.1,44.9,29.82,SSE,155,3.0,6.0,21,0.00,,,0.00,Wunderground v.1.15,2013-06-30 18:43:00,
2013-06-30 12:48:00,90.4,46.4,29.82,SW,224,3.0,3.0,22,0.00,,,0.00,Wunderground v.1.15,2013-06-30 18:48:00,
2013-06-30 12:58:00,90.0,44.8,29.81,SE,135,2.0,2.0,21,0.00,,,0.00,Wunderground v.1.15,2013-06-30 18:58:00,
2013-06-30 13:08:00,91.6,46.1,29.80,South,188,1.0,1.0,21,0.00,,,0.00,Wunderground v.1.15,2013-06-30 19:08:00,
2013-06-30 13:13:00,91.1,44.4,29.80,SSW,198,1.0,2.0,20,0.00,,,0.00,Wunderground v.1.15,2013-06-30 19:13:00,
2013-06-30 13:23:00,92.3,46.7,29.79,SW,232,1.0,3.0,21,0.00,,,0.00,Wunderground v.1.15,2013-06-30 19:23:00,
2013-06-30 13:33:00,92.8,44.5,29.78,SSE,155,2.0,4.0,19,0.00,,,0.00,Wunderground v.1.15,2013-06-30 19:33:00,
2013-06-30 13:43:00,92.6,44.3,29.78,SW,235,2.0,3.0,19,0.00,,,0.00,Wunderground v.1.15,2013-06-30 19:43:00,
2013-06-30 13:53:00,92.0,43.8,29.77,WNW,302,4.0,4.0,19,0.00,,,0.00,Wunderground v.1.15,2013-06-30 19:53:00,
2013-06-30 13:58:00,91.4,44.7,29.76,NNW,338,5.0,6.0,20,0.00,,,0.00,Wunderground v.1.15,2013-06-30 19:58:00,
2013-06-30 14:08:00,92.1,45.3,29.76,WSW,257,2.0,2.0,20,0.00,,,0.00,Wunderground v.1.15,2013-06-30 20:08:00,
2013-06-30 14:18:00,93.2,43.4,29.75,West,280,3.0,3.0,18,0.00,,,0.00,Wunderground v.1.15,2013-06-30 20:18:00,
2013-06-30 14:28:00,94.2,42.7,29.74,SSE,152,2.0,5.0,17,0.00,,,0.00,Wunderground v.1.15,2013-06-30 20:28:00,
2013-06-30 14:33:00,93.7,42.3,29.74,SSW,210,3.0,5.0,17,0.00,,,0.00,Wunderground v.1.15,2013-06-30 20:33:00,
2013-06-30 14:43:00,94.4,41.3,29.74,North,6,2.0,4.0,16,0.00,,,0.00,Wunderground v.1.15,2013-06-30 20:43:00,
2013-06-30 14:48:00,93.9,40.9,29.73,North,349,2.0,2.0,16,0.00,,,0.00,Wunderground v.1.15,2013-06-30 20:48:00,
2013-06-30 14:58:00,94.5,39.7,29.72,NNE,20,2.0,3.0,15,0.00,,,0.00,Wunderground v.1.15,2013-06-30 20:58:00,
2013-06-30 15:08:00,94.2,39.5,29.71,NNE,26,3.0,3.0,15,0.00,,,0.00,Wunderground v.1.15,2013-06-30 21:08:00,
2013-06-30 15:13:00,94.1,39.4,29.71,ENE,63,3.0,3.0,15,0.00,,,0.00,Wunderground v.1.15,2013-06-30 21:13:00,
2013-06-30 15:23:00,95.5,42.2,29.70,WNW,288,2.0,4.0,16,0.00,,,0.00,Wunderground v.1.15,2013-06-30 21:23:00,
2013-06-30 15:28:00,95.3,40.3,29.70,WNW,296,3.0,4.0,15,0.00,,,0.00,Wunderground v.1.15,2013-06-30 21:28:00,
2013-06-30 15:38:00,95.1,40.2,29.70,South,188,4.0,4.0,15,0.00,,,0.00,Wunderground v.1.15,2013-06-30 21:38:00,
2013-06-30 15:43:00,94.8,39.9,29.70,North,359,5.0,5.0,15,0.00,,,0.00,Wunderground v.1.15,2013-06-30 21:43:00,
2013-06-30 15:53:00,94.9,40.0,29.69,WSW,245,4.0,7.0,15,0.00,,,0.00,Wunderground v.1.15,2013-06-30 21:53:00,
2013-06-30 15:58:00,95.4,38.6,29.69,North,4,3.0,6.0,14,0.00,,,0.00,Wunderground v.1.15,2013-06-30 21:58:00,
2013-06-30 16:08:00,95.0,38.3,29.69,NNW,336,5.0,5.0,14,0.00,,,0.00,Wunderground v.1.15,2013-06-30 22:08:00,
2013-06-30 16:13:00,94.9,38.3,29.68,NW,314,4.0,5.0,14,0.00,,,0.00,Wunderground v.1.15,2013-06-30 22:13:00,
2013-06-30 16:23:00,94.8,39.9,29.68,ESE,117,2.0,3.0,15,0.00,,,0.00,Wunderground v.1.15,2013-06-30 22:23:00,
2013-06-30 16:28:00,95.1,40.2,29.68,ESE,118,2.0,2.0,15,0.00,,,0.00,Wunderground v.1.15,2013-06-30 22:28:00,
2013-06-30 16:38:00,95.4,45.2,29.68,ESE,120,5.0,6.0,18,0.00,,,0.00,Wunderground v.1.15,2013-06-30 22:38:00,
2013-06-30 16:48:00,92.8,45.8,29.68,ESE,118,7.0,7.0,20,0.00,,,0.00,Wunderground v.1.15,2013-06-30 22:48:00,
2013-06-30 16:53:00,91.3,44.6,29.68,SE,125,10.0,10.0,20,0.00,,,0.00,Wunderground v.1.15,2013-06-30 22:53:00,
2013-06-30 16:58:00,90.8,46.7,29.68,SE,125,10.0,14.0,22,0.00,,,0.00,Wunderground v.1.15,2013-06-30 22:58:00,
2013-06-30 17:08:00,89.1,45.3,29.68,SE,125,8.0,9.0,22,0.00,,,0.00,Wunderground v.1.15,2013-06-30 23:08:00,
2013-06-30 17:18:00,88.4,45.9,29.68,East,82,7.0,7.0,23,0.00,,,0.00,Wunderground v.1.15,2013-06-30 23:18:00,
2013-06-30 17:23:00,88.5,46.0,29.68,SSE,159,5.0,7.0,23,0.00,,,0.00,Wunderground v.1.15,2013-06-30 23:23:00,
2013-06-30 17:33:00,88.0,44.4,29.69,East,79,7.0,7.0,22,0.00,,,0.00,Wunderground v.1.15,2013-06-30 23:33:00,
2013-06-30 17:38:00,88.2,44.5,29.69,ENE,67,6.0,9.0,22,0.00,,,0.00,Wunderground v.1.15,2013-06-30 23:38:00,
2013-06-30 17:48:00,87.2,44.9,29.71,North,11,4.0,4.0,23,0.00,,,0.00,Wunderground v.1.15,2013-06-30 23:48:00,
2013-06-30 17:53:00,86.5,46.5,29.71,ENE,77,4.0,4.0,25,0.00,,,0.00,Wunderground v.1.15,2013-06-30 23:53:00,
2013-06-30 17:58:00,86.1,46.2,29.71,ENE,75,4.0,4.0,25,0.00,,,0.00,Wunderground v.1.15,2013-06-30 23:58:00,
2013-06-30 18:08:00,85.6,44.7,29.71,ENE,67,4.0,4.0,24,0.00,,,0.00,Wunderground v.1.15,2013-07-01 00:08:00,
2013-06-30 18:18:00,85.3,44.4,29.73,NE,41,4.0,4.0,24,0.00,,,0.00,Wunderground v.1.15,2013-07-01 00:18:00,
2013-06-30 18:28:00,85.2,44.3,29.73,NE,56,2.0,4.0,24,0.00,,,0.00,Wunderground v.1.15,2013-07-01 00:28:00,
2013-06-30 18:33:00,85.2,43.2,29.74,ENE,78,2.0,4.0,23,0.00,,,0.00,Wunderground v.1.15,2013-07-01 00:33:00,
2013-06-30 18:43:00,84.7,46.0,29.75,ESE,108,3.0,5.0,26,0.00,,,0.00,Wunderground v.1.15,2013-07-01 00:43:00,
2013-06-30 18:53:00,83.5,45.0,29.77,NE,50,5.0,7.0,26,0.00,,,0.00,Wunderground v.1.15,2013-07-01 00:53:00,
2013-06-30 18:58:00,83.0,46.5,29.77,ENE,68,4.0,4.0,28,0.00,,,0.00,Wunderground v.1.15,2013-07-01 00:58:00,
2013-06-30 19:08:00,81.4,48.7,29.77,NE,53,3.0,3.0,32,0.00,,,0.00,Wunderground v.1.15,2013-07-01 01:08:00,
2013-06-30 19:13:00,81.0,48.4,29.77,SSE,158,3.0,4.0,32,0.00,,,0.00,Wunderground v.1.15,2013-07-01 01:13:00,
2013-06-30 19:23:00,81.1,47.6,29.78,South,176,4.0,6.0,31,0.00,,,0.00,Wunderground v.1.15,2013-07-01 01:23:00,
2013-06-30 19:33:00,81.9,46.5,29.76,ESE,113,5.0,5.0,29,0.00,,,0.00,Wunderground v.1.15,2013-07-01 01:33:00,
2013-06-30 19:43:00,82.5,45.1,29.76,SSE,149,5.0,5.0,27,0.00,,,0.00,Wunderground v.1.15,2013-07-01 01:43:00,
2013-06-30 19:53:00,82.1,47.6,29.76,SSE,150,6.0,6.0,30,0.00,,,0.00,Wunderground v.1.15,2013-07-01 01:53:00,
2013-06-30 19:58:00,81.8,47.3,29.75,SSE,157,6.0,6.0,30,0.00,,,0.00,Wunderground v.1.15,2013-07-01 01:58:00,
2013-06-30 20:08:00,81.6,47.2,29.76,SE,131,4.0,4.0,30,0.00,,,0.00,Wunderground v.1.15,2013-07-01 02:08:00,
2013-06-30 20:18:00,81.6,47.2,29.77,SE,132,4.0,4.0,30,0.00,,,0.00,Wunderground v.1.15,2013-07-01 02:18:00,
2013-06-30 20:23:00,81.5,47.1,29.78,SE,136,4.0,8.0,30,0.00,,,0.00,Wunderground v.1.15,2013-07-01 02:23:00,
2013-06-30 20:33:00,81.2,47.7,29.78,SSE,164,6.0,7.0,31,0.00,,,0.00,Wunderground v.1.15,2013-07-01 02:33:00,
2013-06-30 20:38:00,81.1,47.6,29.79,South,174,5.0,5.0,31,0.00,,,0.00,Wunderground v.1.15,2013-07-01 02:38:00,
2013-06-30 20:48:00,81.0,45.7,29.80,ENE,76,4.0,4.0,29,0.00,,,0.00,Wunderground v.1.15,2013-07-01 02:48:00,
2013-06-30 20:58:00,80.7,43.6,29.82,ENE,70,3.0,4.0,27,0.00,,,0.00,Wunderground v.1.15,2013-07-01 02:58:00,
2013-06-30 21:08:00,79.1,46.7,29.83,East,96,4.0,4.0,32,0.00,,,0.00,Wunderground v.1.15,2013-07-01 03:08:00,
2013-06-30 21:18:00,77.2,48.9,29.83,ESE,120,6.0,9.0,37,0.00,,,0.00,Wunderground v.1.15,2013-07-01 03:18:00,
2013-06-30 21:23:00,77.0,47.2,29.84,ESE,110,6.0,9.0,35,0.00,,,0.00,Wunderground v.1.15,2013-07-01 03:23:00,
2013-06-30 21:28:00,77.1,45.8,29.84,NE,53,5.0,5.0,33,0.00,,,0.00,Wunderground v.1.15,2013-07-01 03:28:00,
2013-06-30 21:38:00,77.3,45.1,29.84,ESE,110,4.0,4.0,32,0.00,,,0.00,Wunderground v.1.15,2013-07-01 03:38:00,
2013-06-30 21:48:00,77.2,45.9,29.85,ENE,64,4.0,4.0,33,0.00,,,0.00,Wunderground v.1.15,2013-07-01 03:48:00,
2013-06-30 21:53:00,76.9,45.6,29.85,East,94,3.0,5.0,33,0.00,,,0.00,Wunderground v.1.15,2013-07-01 03:53:00,
2013-06-30 21:58:00,76.8,45.5,29.86,NE,53,4.0,4.0,33,0.00,,,0.00,Wunderground v.1.15,2013-07-01 03:58:00,
2013-06-30 22:03:00,76.8,45.5,29.86,ENE,72,3.0,7.0,33,0.00,,,0.00,Wunderground v.1.15,2013-07-01 04:03:00,
2013-06-30 22:13:00,76.7,45.4,29.88,East,82,2.0,3.0,33,0.00,,,0.00,Wunderground v.1.15,2013-07-01 04:13:00,
2013-06-30 22:23:00,76.5,45.2,29.88,NNE,13,3.0,7.0,33,0.00,,,0.00,Wunderground v.1.15,2013-07-01 04:23:00,
2013-06-30 22:28:00,76.2,45.8,29.89,NNW,347,4.0,11.0,34,0.00,,,0.00,Wunderground v.1.15,2013-07-01 04:28:00,
2013-06-30 22:33:00,76.1,46.5,29.89,North,3,3.0,11.0,35,0.00,,,0.00,Wunderground v.1.15,2013-07-01 04:33:00,
2013-06-30 22:43:00,75.0,49.0,29.90,ENE,58,5.0,13.0,40,0.00,,,0.00,Wunderground v.1.15,2013-07-01 04:43:00,
2013-06-30 22:53:00,73.5,50.9,29.92,NE,49,5.0,15.0,45,0.00,,,0.00,Wunderground v.1.15,2013-07-01 04:53:00,
2013-06-30 22:58:00,72.7,50.7,29.92,ENE,72,5.0,5.0,46,0.00,,,0.00,Wunderground v.1.15,2013-07-01 04:58:00,
2013-06-30 23:08:00,72.4,49.9,29.91,ENE,69,5.0,5.0,45,0.00,,,0.00,Wunderground v.1.15,2013-07-01 05:08:00,
2013-06-30 23:13:00,72.2,50.3,29.91,NE,44,5.0,5.0,46,0.00,,,0.00,Wunderground v.1.15,2013-07-01 05:13:00,
2013-06-30 23:18:00,71.9,50.0,29.92,East,100,3.0,3.0,46,0.00,,,0.00,Wunderground v.1.15,2013-07-01 05:18:00,
2013-06-30 23:28:00,71.3,50.0,29.93,NE,36,5.0,9.0,47,0.00,,,0.00,Wunderground v.1.15,2013-07-01 05:28:00,
2013-06-30 23:38:00,70.9,50.8,29.94,South,174,5.0,5.0,49,0.00,,,0.00,Wunderground v.1.15,2013-07-01 05:38:00,
2013-06-30 23:48:00,70.4,51.4,29.95,NNE,18,5.0,10.0,51,0.00,,,0.00,Wunderground v.1.15,2013-07-01 05:48:00,
2013-06-30 23:53:00,70.1,51.7,29.94,North,8,5.0,10.0,52,0.00,,,0.00,Wunderground v.1.15,2013-07-01 05:53:00,
2013-06-30 23:58:00,70.1,51.1,29.94,NE,41,6.0,6.0,51,0.00,,,0.00,Wunderground v.1.15,2013-07-01 05:58:00,